sensor_id;sensor_type;location;lat;lon;timestamp;temperature;humidity
56298;DHT22;42208;6.376;-10.782;2023-06-10T00:00:03;27.90;99.90
56298;DHT22;42208;6.376;-10.782;2023-06-10T00:02:38;27.80;99.90
56298;DHT22;42208;6.376;-10.782;2023-06-10T00:05:07;27.80;99.90
56298;DHT22;42208;6.376;-10.782;2023-06-10T00:07:36;27.90;99.90
56298;DHT22;42208;6.376;-10.782;2023-06-10T00:10:06;27.90;99.90
56298;DHT22;42208;6.376;-10.782;2023-06-10T00:12:34;27.90;99.90
56298;DHT22;42208;6.376;-10.782;2023-06-10T00:15:04;27.90;99.90
56298;DHT22;42208;6.376;-10.782;2023-06-10T00:17:33;27.90;99.90
56298;DHT22;42208;6.376;-10.782;2023-06-10T00:20:02;27.80;99.90
56298;DHT22;42208;6.376;-10.782;2023-06-10T00:22:31;27.80;99.90
56298;DHT22;42208;6.376;-10.782;2023-06-10T00:24:59;27.90;99.90
56298;DHT22;42208;6.376;-10.782;2023-06-10T00:27:28;27.90;99.90
56298;DHT22;42208;6.376;-10.782;2023-06-10T00:29:57;27.80;99.90
56298;DHT22;42208;6.376;-10.782;2023-06-10T00:32:25;27.80;99.90
56298;DHT22;42208;6.376;-10.782;2023-06-10T00:34:55;27.80;99.90
56298;DHT22;42208;6.376;-10.782;2023-06-10T00:37:24;27.80;99.90
56298;DHT22;42208;6.376;-10.782;2023-06-10T00:39:52;27.80;99.90
56298;DHT22;42208;6.376;-10.782;2023-06-10T00:42:21;27.90;99.90
56298;DHT22;42208;6.376;-10.782;2023-06-10T00:44:53;27.80;99.90
56298;DHT22;42208;6.376;-10.782;2023-06-10T00:47:23;27.80;99.90
56298;DHT22;42208;6.376;-10.782;2023-06-10T00:49:51;27.90;99.90
56298;DHT22;42208;6.376;-10.782;2023-06-10T00:52:22;27.90;99.90
56298;DHT22;42208;6.376;-10.782;2023-06-10T00:54:51;27.90;99.90
56298;DHT22;42208;6.376;-10.782;2023-06-10T00:57:20;27.80;99.90
56298;DHT22;42208;6.376;-10.782;2023-06-10T00:59:50;27.80;99.90
56298;DHT22;42208;6.376;-10.782;2023-06-10T01:02:19;27.70;99.90
56298;DHT22;42208;6.376;-10.782;2023-06-10T01:04:48;27.60;99.90
56298;DHT22;42208;6.376;-10.782;2023-06-10T01:07:28;27.50;99.90
56298;DHT22;42208;6.376;-10.782;2023-06-10T01:10:51;27.50;99.90
56298;DHT22;42208;6.376;-10.782;2023-06-10T01:13:01;27.40;99.90
56298;DHT22;42208;6.376;-10.782;2023-06-10T01:15:31;27.40;99.90
56298;DHT22;42208;6.376;-10.782;2023-06-10T01:18:05;27.30;99.90
56298;DHT22;42208;6.376;-10.782;2023-06-10T01:20:36;27.30;99.90
56298;DHT22;42208;6.376;-10.782;2023-06-10T01:23:05;27.40;99.90
56298;DHT22;42208;6.376;-10.782;2023-06-10T01:25:42;27.30;99.90
56298;DHT22;42208;6.376;-10.782;2023-06-10T01:28:21;27.30;99.90
56298;DHT22;42208;6.376;-10.782;2023-06-10T01:33:39;27.30;99.90
56298;DHT22;42208;6.376;-10.782;2023-06-10T01:36:10;27.30;99.90
56298;DHT22;42208;6.376;-10.782;2023-06-10T01:38:48;27.40;99.90
56298;DHT22;42208;6.376;-10.782;2023-06-10T01:41:18;27.40;99.90
56298;DHT22;42208;6.376;-10.782;2023-06-10T01:43:48;27.40;99.90
56298;DHT22;42208;6.376;-10.782;2023-06-10T01:46:16;27.40;99.90
56298;DHT22;42208;6.376;-10.782;2023-06-10T01:48:46;27.40;99.90
56298;DHT22;42208;6.376;-10.782;2023-06-10T01:51:15;27.40;99.90
56298;DHT22;42208;6.376;-10.782;2023-06-10T01:53:44;27.40;99.90
56298;DHT22;42208;6.376;-10.782;2023-06-10T01:56:13;27.40;99.90
56298;DHT22;42208;6.376;-10.782;2023-06-10T01:58:42;27.40;99.90
56298;DHT22;42208;6.376;-10.782;2023-06-10T02:01:11;27.40;99.90
56298;DHT22;42208;6.376;-10.782;2023-06-10T02:03:40;27.40;99.90
56298;DHT22;42208;6.376;-10.782;2023-06-10T02:06:08;27.40;99.90
56298;DHT22;42208;6.376;-10.782;2023-06-10T02:08:37;27.40;99.90
56298;DHT22;42208;6.376;-10.782;2023-06-10T02:11:06;27.40;99.90
56298;DHT22;42208;6.376;-10.782;2023-06-10T02:13:34;27.40;99.90
56298;DHT22;42208;6.376;-10.782;2023-06-10T02:16:03;27.40;99.90
56298;DHT22;42208;6.376;-10.782;2023-06-10T02:18:32;27.50;99.90
56298;DHT22;42208;6.376;-10.782;2023-06-10T02:21:01;27.50;99.90
56298;DHT22;42208;6.376;-10.782;2023-06-10T02:23:29;27.40;99.90
56298;DHT22;42208;6.376;-10.782;2023-06-10T02:25:57;27.40;99.90
56298;DHT22;42208;6.376;-10.782;2023-06-10T02:28:32;27.40;99.90
56298;DHT22;42208;6.376;-10.782;2023-06-10T02:31:01;27.40;99.90
56298;DHT22;42208;6.376;-10.782;2023-06-10T02:33:29;27.40;99.90
56298;DHT22;42208;6.376;-10.782;2023-06-10T02:35:58;27.40;99.90
56298;DHT22;42208;6.376;-10.782;2023-06-10T02:38:27;27.50;99.90
56298;DHT22;42208;6.376;-10.782;2023-06-10T02:40:58;27.40;99.90
56298;DHT22;42208;6.376;-10.782;2023-06-10T02:43:28;27.40;99.90
56298;DHT22;42208;6.376;-10.782;2023-06-10T02:45:56;27.40;99.90
56298;DHT22;42208;6.376;-10.782;2023-06-10T02:48:25;27.40;99.90
56298;DHT22;42208;6.376;-10.782;2023-06-10T02:50:56;27.40;99.90
56298;DHT22;42208;6.376;-10.782;2023-06-10T02:53:35;27.40;99.90
56298;DHT22;42208;6.376;-10.782;2023-06-10T02:56:08;27.50;99.90
56298;DHT22;42208;6.376;-10.782;2023-06-10T02:58:37;27.50;99.90
56298;DHT22;42208;6.376;-10.782;2023-06-10T03:01:06;27.50;99.90
56298;DHT22;42208;6.376;-10.782;2023-06-10T03:03:43;27.50;99.90
56298;DHT22;42208;6.376;-10.782;2023-06-10T03:06:14;27.50;99.90
56298;DHT22;42208;6.376;-10.782;2023-06-10T03:08:43;27.50;99.90
56298;DHT22;42208;6.376;-10.782;2023-06-10T03:11:16;27.50;99.90
56298;DHT22;42208;6.376;-10.782;2023-06-10T03:13:44;27.50;99.90
56298;DHT22;42208;6.376;-10.782;2023-06-10T03:16:16;27.50;99.90
56298;DHT22;42208;6.376;-10.782;2023-06-10T03:18:45;27.50;99.90
56298;DHT22;42208;6.376;-10.782;2023-06-10T03:21:14;27.50;99.90
56298;DHT22;42208;6.376;-10.782;2023-06-10T03:23:43;27.50;99.90
56298;DHT22;42208;6.376;-10.782;2023-06-10T03:26:12;27.50;99.90
56298;DHT22;42208;6.376;-10.782;2023-06-10T03:28:43;27.50;99.90
56298;DHT22;42208;6.376;-10.782;2023-06-10T03:31:12;27.40;99.90
56298;DHT22;42208;6.376;-10.782;2023-06-10T03:33:41;27.40;99.90
56298;DHT22;42208;6.376;-10.782;2023-06-10T03:36:10;27.50;99.90
56298;DHT22;42208;6.376;-10.782;2023-06-10T03:38:38;27.50;99.90
56298;DHT22;42208;6.376;-10.782;2023-06-10T03:41:08;27.50;99.90
56298;DHT22;42208;6.376;-10.782;2023-06-10T03:43:40;27.50;99.90
56298;DHT22;42208;6.376;-10.782;2023-06-10T03:46:09;27.40;99.90
56298;DHT22;42208;6.376;-10.782;2023-06-10T03:48:38;27.50;99.90
56298;DHT22;42208;6.376;-10.782;2023-06-10T03:51:07;27.50;99.90
56298;DHT22;42208;6.376;-10.782;2023-06-10T03:53:36;27.50;99.90
56298;DHT22;42208;6.376;-10.782;2023-06-10T03:56:05;27.60;99.90
56298;DHT22;42208;6.376;-10.782;2023-06-10T03:58:34;27.50;99.90
56298;DHT22;42208;6.376;-10.782;2023-06-10T04:01:04;27.50;99.90
56298;DHT22;42208;6.376;-10.782;2023-06-10T04:03:35;27.50;99.90
56298;DHT22;42208;6.376;-10.782;2023-06-10T04:06:03;27.50;99.90
56298;DHT22;42208;6.376;-10.782;2023-06-10T04:08:32;27.50;99.90
56298;DHT22;42208;6.376;-10.782;2023-06-10T04:11:01;27.50;99.90
56298;DHT22;42208;6.376;-10.782;2023-06-10T04:13:29;27.50;99.90
56298;DHT22;42208;6.376;-10.782;2023-06-10T04:15:59;27.50;99.90
56298;DHT22;42208;6.376;-10.782;2023-06-10T04:18:28;27.50;99.90
56298;DHT22;42208;6.376;-10.782;2023-06-10T04:21:01;27.50;99.90
56298;DHT22;42208;6.376;-10.782;2023-06-10T04:23:31;27.60;99.90
56298;DHT22;42208;6.376;-10.782;2023-06-10T04:26:00;27.50;99.90
56298;DHT22;42208;6.376;-10.782;2023-06-10T04:28:29;27.50;99.90
56298;DHT22;42208;6.376;-10.782;2023-06-10T04:30:58;27.60;99.90
56298;DHT22;42208;6.376;-10.782;2023-06-10T04:33:27;27.60;99.90
56298;DHT22;42208;6.376;-10.782;2023-06-10T04:35:56;27.60;99.90
56298;DHT22;42208;6.376;-10.782;2023-06-10T04:38:28;27.60;99.90
56298;DHT22;42208;6.376;-10.782;2023-06-10T04:40:59;27.60;99.90
56298;DHT22;42208;6.376;-10.782;2023-06-10T04:43:31;27.60;99.90
56298;DHT22;42208;6.376;-10.782;2023-06-10T04:46:00;27.60;99.90
56298;DHT22;42208;6.376;-10.782;2023-06-10T04:48:30;27.60;99.90
56298;DHT22;42208;6.376;-10.782;2023-06-10T04:50:59;27.60;99.90
56298;DHT22;42208;6.376;-10.782;2023-06-10T04:53:27;27.60;99.90
56298;DHT22;42208;6.376;-10.782;2023-06-10T04:55:57;27.60;99.90
56298;DHT22;42208;6.376;-10.782;2023-06-10T04:58:25;27.60;99.90
56298;DHT22;42208;6.376;-10.782;2023-06-10T05:00:54;27.60;99.90
56298;DHT22;42208;6.376;-10.782;2023-06-10T05:03:22;27.60;99.90
56298;DHT22;42208;6.376;-10.782;2023-06-10T05:05:51;27.60;99.90
56298;DHT22;42208;6.376;-10.782;2023-06-10T05:08:19;27.60;99.90
56298;DHT22;42208;6.376;-10.782;2023-06-10T05:10:48;27.60;99.90
56298;DHT22;42208;6.376;-10.782;2023-06-10T05:13:17;27.50;99.90
56298;DHT22;42208;6.376;-10.782;2023-06-10T05:15:46;27.50;99.90
56298;DHT22;42208;6.376;-10.782;2023-06-10T05:18:14;27.40;99.90
56298;DHT22;42208;6.376;-10.782;2023-06-10T05:20:42;27.40;99.90
56298;DHT22;42208;6.376;-10.782;2023-06-10T05:23:11;27.30;99.90
56298;DHT22;42208;6.376;-10.782;2023-06-10T05:25:39;27.20;99.90
56298;DHT22;42208;6.376;-10.782;2023-06-10T05:28:08;27.20;99.90
56298;DHT22;42208;6.376;-10.782;2023-06-10T05:30:38;27.10;99.90
56298;DHT22;42208;6.376;-10.782;2023-06-10T05:33:07;27.10;99.90
56298;DHT22;42208;6.376;-10.782;2023-06-10T05:35:36;27.00;99.90
56298;DHT22;42208;6.376;-10.782;2023-06-10T05:38:05;27.00;99.90
56298;DHT22;42208;6.376;-10.782;2023-06-10T05:40:34;26.90;99.90
56298;DHT22;42208;6.376;-10.782;2023-06-10T05:43:02;26.90;99.90
56298;DHT22;42208;6.376;-10.782;2023-06-10T05:45:30;26.90;99.90
56298;DHT22;42208;6.376;-10.782;2023-06-10T05:47:59;26.80;99.90
56298;DHT22;42208;6.376;-10.782;2023-06-10T05:50:27;26.80;99.90
56298;DHT22;42208;6.376;-10.782;2023-06-10T05:52:56;26.70;99.90
56298;DHT22;42208;6.376;-10.782;2023-06-10T05:55:24;26.60;99.90
56298;DHT22;42208;6.376;-10.782;2023-06-10T05:57:59;26.60;99.90
56298;DHT22;42208;6.376;-10.782;2023-06-10T06:00:27;26.50;99.90
56298;DHT22;42208;6.376;-10.782;2023-06-10T06:02:56;26.60;99.90
56298;DHT22;42208;6.376;-10.782;2023-06-10T06:05:25;26.50;99.90
56298;DHT22;42208;6.376;-10.782;2023-06-10T06:07:53;26.50;99.90
56298;DHT22;42208;6.376;-10.782;2023-06-10T06:10:22;26.50;99.90
56298;DHT22;42208;6.376;-10.782;2023-06-10T06:12:50;26.50;99.90
56298;DHT22;42208;6.376;-10.782;2023-06-10T06:15:19;26.50;99.90
56298;DHT22;42208;6.376;-10.782;2023-06-10T06:17:47;26.40;99.90
56298;DHT22;42208;6.376;-10.782;2023-06-10T06:20:16;26.40;99.90
56298;DHT22;42208;6.376;-10.782;2023-06-10T06:22:46;26.40;99.90
56298;DHT22;42208;6.376;-10.782;2023-06-10T06:25:15;26.40;99.90
56298;DHT22;42208;6.376;-10.782;2023-06-10T06:27:44;26.40;99.90
56298;DHT22;42208;6.376;-10.782;2023-06-10T06:30:12;26.40;99.90
56298;DHT22;42208;6.376;-10.782;2023-06-10T06:32:41;26.50;99.90
56298;DHT22;42208;6.376;-10.782;2023-06-10T06:35:09;26.40;99.90
56298;DHT22;42208;6.376;-10.782;2023-06-10T06:37:38;26.40;99.90
56298;DHT22;42208;6.376;-10.782;2023-06-10T06:40:16;26.30;99.90
56298;DHT22;42208;6.376;-10.782;2023-06-10T06:42:45;26.30;99.90
56298;DHT22;42208;6.376;-10.782;2023-06-10T06:45:22;26.40;99.90
56298;DHT22;42208;6.376;-10.782;2023-06-10T06:47:51;26.40;99.90
56298;DHT22;42208;6.376;-10.782;2023-06-10T06:50:19;26.40;99.90
56298;DHT22;42208;6.376;-10.782;2023-06-10T06:52:48;26.40;99.90
56298;DHT22;42208;6.376;-10.782;2023-06-10T06:55:16;26.40;99.90
56298;DHT22;42208;6.376;-10.782;2023-06-10T06:57:45;26.40;99.90
56298;DHT22;42208;6.376;-10.782;2023-06-10T07:00:13;26.40;99.90
56298;DHT22;42208;6.376;-10.782;2023-06-10T07:02:42;26.50;99.90
56298;DHT22;42208;6.376;-10.782;2023-06-10T07:05:11;26.60;99.90
56298;DHT22;42208;6.376;-10.782;2023-06-10T07:07:40;26.60;99.90
56298;DHT22;42208;6.376;-10.782;2023-06-10T07:10:08;26.60;99.90
56298;DHT22;42208;6.376;-10.782;2023-06-10T07:12:37;26.70;99.90
56298;DHT22;42208;6.376;-10.782;2023-06-10T07:15:05;26.70;99.90
56298;DHT22;42208;6.376;-10.782;2023-06-10T07:17:35;26.60;99.90
56298;DHT22;42208;6.376;-10.782;2023-06-10T07:20:03;26.60;99.90
56298;DHT22;42208;6.376;-10.782;2023-06-10T07:22:32;26.70;99.90
56298;DHT22;42208;6.376;-10.782;2023-06-10T07:25:00;26.70;99.90
56298;DHT22;42208;6.376;-10.782;2023-06-10T07:27:29;26.70;99.90
56298;DHT22;42208;6.376;-10.782;2023-06-10T07:29:57;26.70;99.90
56298;DHT22;42208;6.376;-10.782;2023-06-10T07:32:26;26.70;99.90
56298;DHT22;42208;6.376;-10.782;2023-06-10T07:34:54;26.80;99.90
56298;DHT22;42208;6.376;-10.782;2023-06-10T07:37:23;26.80;99.90
56298;DHT22;42208;6.376;-10.782;2023-06-10T07:39:51;26.80;99.90
56298;DHT22;42208;6.376;-10.782;2023-06-10T07:42:20;26.80;99.90
56298;DHT22;42208;6.376;-10.782;2023-06-10T07:44:48;26.80;99.90
56298;DHT22;42208;6.376;-10.782;2023-06-10T07:47:17;26.80;99.90
56298;DHT22;42208;6.376;-10.782;2023-06-10T07:49:46;26.90;99.90
56298;DHT22;42208;6.376;-10.782;2023-06-10T07:52:14;26.90;99.90
56298;DHT22;42208;6.376;-10.782;2023-06-10T07:54:43;26.90;99.90
56298;DHT22;42208;6.376;-10.782;2023-06-10T07:57:11;26.90;99.90
56298;DHT22;42208;6.376;-10.782;2023-06-10T07:59:40;26.90;99.90
56298;DHT22;42208;6.376;-10.782;2023-06-10T08:02:08;26.90;99.90
56298;DHT22;42208;6.376;-10.782;2023-06-10T08:04:37;26.90;99.90
56298;DHT22;42208;6.376;-10.782;2023-06-10T08:07:06;26.90;99.90
56298;DHT22;42208;6.376;-10.782;2023-06-10T08:09:34;26.90;99.90
56298;DHT22;42208;6.376;-10.782;2023-06-10T08:12:03;26.90;99.90
56298;DHT22;42208;6.376;-10.782;2023-06-10T08:14:32;26.90;99.90
56298;DHT22;42208;6.376;-10.782;2023-06-10T08:17:01;26.90;99.90
56298;DHT22;42208;6.376;-10.782;2023-06-10T08:19:29;26.90;99.90
56298;DHT22;42208;6.376;-10.782;2023-06-10T08:21:58;27.00;99.90
56298;DHT22;42208;6.376;-10.782;2023-06-10T08:24:27;27.00;99.90
56298;DHT22;42208;6.376;-10.782;2023-06-10T08:26:55;27.00;99.90
56298;DHT22;42208;6.376;-10.782;2023-06-10T08:29:24;27.10;99.90
56298;DHT22;42208;6.376;-10.782;2023-06-10T08:31:53;27.10;99.90
56298;DHT22;42208;6.376;-10.782;2023-06-10T08:34:22;27.10;99.90
56298;DHT22;42208;6.376;-10.782;2023-06-10T08:36:51;27.10;99.90
56298;DHT22;42208;6.376;-10.782;2023-06-10T08:39:20;27.10;99.90
56298;DHT22;42208;6.376;-10.782;2023-06-10T08:44:36;27.20;99.90
56298;DHT22;42208;6.376;-10.782;2023-06-10T08:47:13;27.20;99.90
56298;DHT22;42208;6.376;-10.782;2023-06-10T08:49:46;27.30;99.90
56298;DHT22;42208;6.376;-10.782;2023-06-10T08:52:17;27.30;99.90
56298;DHT22;42208;6.376;-10.782;2023-06-10T08:54:54;27.40;99.90
56298;DHT22;42208;6.376;-10.782;2023-06-10T08:57:26;27.40;99.90
56298;DHT22;42208;6.376;-10.782;2023-06-10T08:59:57;27.40;99.90
56298;DHT22;42208;6.376;-10.782;2023-06-10T09:02:29;27.40;99.90
56298;DHT22;42208;6.376;-10.782;2023-06-10T09:04:58;27.40;99.90
56298;DHT22;42208;6.376;-10.782;2023-06-10T09:07:30;27.40;99.90
56298;DHT22;42208;6.376;-10.782;2023-06-10T09:10:01;27.50;99.90
56298;DHT22;42208;6.376;-10.782;2023-06-10T09:12:30;27.50;99.90
56298;DHT22;42208;6.376;-10.782;2023-06-10T09:14:58;27.60;99.90
56298;DHT22;42208;6.376;-10.782;2023-06-10T09:17:30;27.70;99.90
56298;DHT22;42208;6.376;-10.782;2023-06-10T09:20:00;27.70;99.90
56298;DHT22;42208;6.376;-10.782;2023-06-10T09:22:29;27.70;99.90
56298;DHT22;42208;6.376;-10.782;2023-06-10T09:25:12;27.70;99.90
56298;DHT22;42208;6.376;-10.782;2023-06-10T09:27:51;27.70;99.90
56298;DHT22;42208;6.376;-10.782;2023-06-10T09:30:28;27.80;99.90
56298;DHT22;42208;6.376;-10.782;2023-06-10T09:32:59;27.80;99.90
56298;DHT22;42208;6.376;-10.782;2023-06-10T09:35:29;27.80;99.90
56298;DHT22;42208;6.376;-10.782;2023-06-10T09:38:00;27.90;99.90
56298;DHT22;42208;6.376;-10.782;2023-06-10T09:40:30;27.90;99.90
56298;DHT22;42208;6.376;-10.782;2023-06-10T09:43:00;28.00;99.90
56298;DHT22;42208;6.376;-10.782;2023-06-10T09:45:32;28.00;99.90
56298;DHT22;42208;6.376;-10.782;2023-06-10T09:48:01;28.10;99.90
56298;DHT22;42208;6.376;-10.782;2023-06-10T09:50:33;28.10;99.90
56298;DHT22;42208;6.376;-10.782;2023-06-10T09:53:02;28.10;99.90
56298;DHT22;42208;6.376;-10.782;2023-06-10T09:55:33;28.10;99.90
56298;DHT22;42208;6.376;-10.782;2023-06-10T09:58:02;28.20;99.90
56298;DHT22;42208;6.376;-10.782;2023-06-10T10:00:36;28.20;99.90
56298;DHT22;42208;6.376;-10.782;2023-06-10T10:03:06;28.30;99.90
56298;DHT22;42208;6.376;-10.782;2023-06-10T10:05:34;28.40;99.90
56298;DHT22;42208;6.376;-10.782;2023-06-10T10:08:03;28.40;99.90
56298;DHT22;42208;6.376;-10.782;2023-06-10T10:10:32;28.50;99.90
56298;DHT22;42208;6.376;-10.782;2023-06-10T10:13:01;28.60;99.90
56298;DHT22;42208;6.376;-10.782;2023-06-10T10:15:32;28.60;99.90
56298;DHT22;42208;6.376;-10.782;2023-06-10T10:18:07;28.70;99.90
56298;DHT22;42208;6.376;-10.782;2023-06-10T10:20:49;28.70;99.90
56298;DHT22;42208;6.376;-10.782;2023-06-10T10:23:24;28.80;99.90
56298;DHT22;42208;6.376;-10.782;2023-06-10T10:25:55;28.80;99.90
56298;DHT22;42208;6.376;-10.782;2023-06-10T10:28:29;28.80;99.90
56298;DHT22;42208;6.376;-10.782;2023-06-10T10:31:07;28.80;99.90
56298;DHT22;42208;6.376;-10.782;2023-06-10T10:33:55;28.90;99.90
56298;DHT22;42208;6.376;-10.782;2023-06-10T10:36:27;29.00;99.90
56298;DHT22;42208;6.376;-10.782;2023-06-10T10:38:56;29.00;99.90
56298;DHT22;42208;6.376;-10.782;2023-06-10T10:41:26;29.10;99.90
56298;DHT22;42208;6.376;-10.782;2023-06-10T10:43:56;29.10;99.90
56298;DHT22;42208;6.376;-10.782;2023-06-10T10:46:24;29.10;99.90
56298;DHT22;42208;6.376;-10.782;2023-06-10T10:48:54;29.10;99.90
56298;DHT22;42208;6.376;-10.782;2023-06-10T10:51:24;29.20;99.90
56298;DHT22;42208;6.376;-10.782;2023-06-10T10:59:57;29.20;99.90
56298;DHT22;42208;6.376;-10.782;2023-06-10T11:02:45;29.20;99.90
56298;DHT22;42208;6.376;-10.782;2023-06-10T11:05:16;29.20;99.90
56298;DHT22;42208;6.376;-10.782;2023-06-10T11:07:55;29.20;99.90
56298;DHT22;42208;6.376;-10.782;2023-06-10T11:10:35;29.10;99.90
56298;DHT22;42208;6.376;-10.782;2023-06-10T11:13:14;29.20;99.90
56298;DHT22;42208;6.376;-10.782;2023-06-10T11:15:50;29.30;99.90
56298;DHT22;42208;6.376;-10.782;2023-06-10T11:18:22;29.30;99.90
56298;DHT22;42208;6.376;-10.782;2023-06-10T11:20:52;29.30;99.90
56298;DHT22;42208;6.376;-10.782;2023-06-10T11:26:16;29.30;99.90
56298;DHT22;42208;6.376;-10.782;2023-06-10T11:31:28;29.40;99.90
56298;DHT22;42208;6.376;-10.782;2023-06-10T11:33:58;29.40;99.90
56298;DHT22;42208;6.376;-10.782;2023-06-10T11:36:28;29.50;99.90
56298;DHT22;42208;6.376;-10.782;2023-06-10T11:39:04;29.60;99.90
56298;DHT22;42208;6.376;-10.782;2023-06-10T11:41:34;29.50;99.90
56298;DHT22;42208;6.376;-10.782;2023-06-10T11:44:11;29.60;99.90
56298;DHT22;42208;6.376;-10.782;2023-06-10T11:46:45;29.60;99.90
56298;DHT22;42208;6.376;-10.782;2023-06-10T11:49:15;29.70;99.90
56298;DHT22;42208;6.376;-10.782;2023-06-10T11:51:44;29.70;99.90
56298;DHT22;42208;6.376;-10.782;2023-06-10T11:54:12;29.80;99.90
56298;DHT22;42208;6.376;-10.782;2023-06-10T11:56:41;29.80;99.90
56298;DHT22;42208;6.376;-10.782;2023-06-10T11:59:10;29.80;99.90
56298;DHT22;42208;6.376;-10.782;2023-06-10T12:01:42;29.90;99.90
56298;DHT22;42208;6.376;-10.782;2023-06-10T12:04:15;29.80;99.90
56298;DHT22;42208;6.376;-10.782;2023-06-10T12:06:49;29.90;99.90
56298;DHT22;42208;6.376;-10.782;2023-06-10T12:09:24;29.70;99.90
56298;DHT22;42208;6.376;-10.782;2023-06-10T12:12:02;29.60;99.90
56298;DHT22;42208;6.376;-10.782;2023-06-10T12:14:51;29.60;99.90
56298;DHT22;42208;6.376;-10.782;2023-06-10T12:19:59;29.50;99.90
56298;DHT22;42208;6.376;-10.782;2023-06-10T12:22:39;29.60;99.90
56298;DHT22;42208;6.376;-10.782;2023-06-10T12:25:09;29.60;99.90
56298;DHT22;42208;6.376;-10.782;2023-06-10T12:27:41;29.60;99.90
56298;DHT22;42208;6.376;-10.782;2023-06-10T12:30:22;29.60;99.90
56298;DHT22;42208;6.376;-10.782;2023-06-10T12:32:51;29.70;99.90
56298;DHT22;42208;6.376;-10.782;2023-06-10T12:35:22;29.70;99.90
56298;DHT22;42208;6.376;-10.782;2023-06-10T12:37:58;29.70;99.90
56298;DHT22;42208;6.376;-10.782;2023-06-10T12:40:29;29.80;99.90
56298;DHT22;42208;6.376;-10.782;2023-06-10T12:42:58;29.80;99.90
56298;DHT22;42208;6.376;-10.782;2023-06-10T12:48:12;29.70;99.90
56298;DHT22;42208;6.376;-10.782;2023-06-10T12:50:42;29.80;99.90
56298;DHT22;42208;6.376;-10.782;2023-06-10T12:53:11;29.80;99.90
56298;DHT22;42208;6.376;-10.782;2023-06-10T12:55:40;29.80;99.90
56298;DHT22;42208;6.376;-10.782;2023-06-10T12:58:08;29.80;99.90
56298;DHT22;42208;6.376;-10.782;2023-06-10T13:00:37;29.70;99.90
56298;DHT22;42208;6.376;-10.782;2023-06-10T13:03:06;29.80;99.90
56298;DHT22;42208;6.376;-10.782;2023-06-10T13:05:38;29.90;99.90
56298;DHT22;42208;6.376;-10.782;2023-06-10T13:08:08;30.10;99.90
56298;DHT22;42208;6.376;-10.782;2023-06-10T13:10:37;30.00;99.90
56298;DHT22;42208;6.376;-10.782;2023-06-10T13:13:07;30.10;99.90
56298;DHT22;42208;6.376;-10.782;2023-06-10T13:15:36;30.10;99.90
56298;DHT22;42208;6.376;-10.782;2023-06-10T13:18:10;30.10;99.90
56298;DHT22;42208;6.376;-10.782;2023-06-10T13:20:39;30.30;99.90
56298;DHT22;42208;6.376;-10.782;2023-06-10T13:23:07;30.40;99.90
56298;DHT22;42208;6.376;-10.782;2023-06-10T13:25:36;30.50;99.90
56298;DHT22;42208;6.376;-10.782;2023-06-10T13:28:04;30.40;99.90
56298;DHT22;42208;6.376;-10.782;2023-06-10T13:30:33;30.40;99.90
56298;DHT22;42208;6.376;-10.782;2023-06-10T13:33:01;30.30;99.90
56298;DHT22;42208;6.376;-10.782;2023-06-10T13:35:30;30.30;99.90
56298;DHT22;42208;6.376;-10.782;2023-06-10T13:37:59;30.10;99.90
56298;DHT22;42208;6.376;-10.782;2023-06-10T13:40:27;30.20;99.90
56298;DHT22;42208;6.376;-10.782;2023-06-10T13:42:56;30.20;99.90
56298;DHT22;42208;6.376;-10.782;2023-06-10T13:45:24;30.30;99.90
56298;DHT22;42208;6.376;-10.782;2023-06-10T13:47:53;30.40;99.90
56298;DHT22;42208;6.376;-10.782;2023-06-10T13:50:22;30.40;99.90
56298;DHT22;42208;6.376;-10.782;2023-06-10T13:52:50;30.40;99.90
56298;DHT22;42208;6.376;-10.782;2023-06-10T13:55:19;30.40;99.90
56298;DHT22;42208;6.376;-10.782;2023-06-10T13:57:47;30.30;99.90
56298;DHT22;42208;6.376;-10.782;2023-06-10T14:00:16;30.30;99.90
56298;DHT22;42208;6.376;-10.782;2023-06-10T14:02:45;30.40;99.90
56298;DHT22;42208;6.376;-10.782;2023-06-10T14:05:14;30.40;99.90
56298;DHT22;42208;6.376;-10.782;2023-06-10T14:07:42;30.30;99.90
56298;DHT22;42208;6.376;-10.782;2023-06-10T14:10:11;30.40;99.90
56298;DHT22;42208;6.376;-10.782;2023-06-10T14:12:40;30.40;99.90
56298;DHT22;42208;6.376;-10.782;2023-06-10T14:15:09;30.40;99.90
56298;DHT22;42208;6.376;-10.782;2023-06-10T14:17:38;30.30;99.90
56298;DHT22;42208;6.376;-10.782;2023-06-10T14:20:07;30.20;99.90
56298;DHT22;42208;6.376;-10.782;2023-06-10T14:22:35;30.10;99.90
56298;DHT22;42208;6.376;-10.782;2023-06-10T14:25:04;30.10;99.90
56298;DHT22;42208;6.376;-10.782;2023-06-10T14:27:33;29.90;99.90
56298;DHT22;42208;6.376;-10.782;2023-06-10T14:30:02;29.80;99.90
56298;DHT22;42208;6.376;-10.782;2023-06-10T14:32:31;29.70;99.90
56298;DHT22;42208;6.376;-10.782;2023-06-10T14:35:00;29.70;99.90
56298;DHT22;42208;6.376;-10.782;2023-06-10T14:37:29;29.60;99.90
56298;DHT22;42208;6.376;-10.782;2023-06-10T14:39:58;29.40;99.90
56298;DHT22;42208;6.376;-10.782;2023-06-10T14:42:26;29.20;99.90
56298;DHT22;42208;6.376;-10.782;2023-06-10T14:44:55;28.90;99.90
56298;DHT22;42208;6.376;-10.782;2023-06-10T14:47:24;28.80;99.90
56298;DHT22;42208;6.376;-10.782;2023-06-10T14:49:53;28.80;99.90
56298;DHT22;42208;6.376;-10.782;2023-06-10T14:52:21;28.80;99.90
56298;DHT22;42208;6.376;-10.782;2023-06-10T14:54:50;28.90;99.90
56298;DHT22;42208;6.376;-10.782;2023-06-10T14:57:18;29.00;99.90
56298;DHT22;42208;6.376;-10.782;2023-06-10T14:59:47;29.40;99.90
56298;DHT22;42208;6.376;-10.782;2023-06-10T15:02:15;29.60;99.90
56298;DHT22;42208;6.376;-10.782;2023-06-10T15:04:43;29.60;99.90
56298;DHT22;42208;6.376;-10.782;2023-06-10T15:07:12;29.70;99.90
56298;DHT22;42208;6.376;-10.782;2023-06-10T15:09:41;29.70;99.90
56298;DHT22;42208;6.376;-10.782;2023-06-10T15:12:10;29.50;99.90
56298;DHT22;42208;6.376;-10.782;2023-06-10T15:14:38;29.50;99.90
56298;DHT22;42208;6.376;-10.782;2023-06-10T15:17:07;29.20;99.90
56298;DHT22;42208;6.376;-10.782;2023-06-10T15:19:36;29.00;99.90
56298;DHT22;42208;6.376;-10.782;2023-06-10T15:22:04;28.90;99.90
56298;DHT22;42208;6.376;-10.782;2023-06-10T15:24:33;28.90;99.90
56298;DHT22;42208;6.376;-10.782;2023-06-10T15:27:01;28.90;99.90
56298;DHT22;42208;6.376;-10.782;2023-06-10T15:29:30;29.00;99.90
56298;DHT22;42208;6.376;-10.782;2023-06-10T15:31:59;29.00;99.90
56298;DHT22;42208;6.376;-10.782;2023-06-10T15:34:27;28.80;99.90
56298;DHT22;42208;6.376;-10.782;2023-06-10T15:36:56;28.70;99.90
56298;DHT22;42208;6.376;-10.782;2023-06-10T15:39:26;28.60;99.90
56298;DHT22;42208;6.376;-10.782;2023-06-10T15:41:55;28.40;99.90
56298;DHT22;42208;6.376;-10.782;2023-06-10T15:44:24;28.20;99.90
56298;DHT22;42208;6.376;-10.782;2023-06-10T15:46:52;28.10;99.90
56298;DHT22;42208;6.376;-10.782;2023-06-10T15:49:21;28.00;99.90
56298;DHT22;42208;6.376;-10.782;2023-06-10T15:51:49;28.00;99.90
56298;DHT22;42208;6.376;-10.782;2023-06-10T15:54:18;27.90;99.90